Flood From: 18-02-2018 10:00 Until: 19-02-2018 06:00 warning for: Flood Level: Yellow info button

Although rather usual in this region, locally or potentially dangerous phenomena are expected. (such as local winds, summer thunderstorms, rising streams or high waves) Be aware and pay attention to the latest weather updates, especially if you carry out activities exposed to weather or close to a stream or shoreline. 


Meteo18 Weather Cam more information Meteo18 Weather Cam


Thunder radar more information blitzortung!


Rain radar more information rain snow radar


Visit our other weather sites:

Template documentation
and downloads

And another site



Weather Underground History page Text

Daily Summary for May 20, 2017 Units:  English    Metric   Both
« Previous Day
Next Day »
Daily Weekly Monthly Yearly Custom
  High: Low: Average:
Temperature: TemperatureC °F 7.6 °F 11.6 °F
Dew Point: DewpointC °F 6.9 °F 8.4 °F
Humidity: Humidity % 53 % 82 %
Wind Speed: WindSpeedKMH mph 0.0 mph 5.5 mph
Wind Gust: WindSpeedGustKMH mph - -
Wind:- - WSW
Pressure: PressurehPa in 1019.2 in -
Precipitation: 0.8 in    
Historical Graphs
 
 
Tabular Data for May 20, 2017
Time Temperature Dew Point Pressure Wind Wind Speed Wind Gust Humidity Rainfall Rate (Hourly)
TemperatureC °F DewpointC °F PressurehPa in Calm     Humidity % HourlyPrecipMM in
00:02 8.1 °F 7.3 °F 1019.2 in SSW 4.8 mph 9.7 mph 95 % 0.0 in
00:07 8.1 °F 7.3 °F 1019.2 in SW 4.8 mph 8.0 mph 95 % 0.0 in
00:12 8.1 °F 7.3 °F 1019.5 in SSW 3.2 mph 8.0 mph 95 % 0.0 in
00:17 8.1 °F 7.3 °F 1019.5 in SW 1.6 mph 8.0 mph 95 % 0.0 in
00:22 8.1 °F 7.3 °F 1019.5 in SSW 4.8 mph 8.0 mph 95 % 0.0 in
00:27 8.1 °F 7.3 °F 1019.5 in SW 4.8 mph 8.0 mph 95 % 0.0 in
00:32 8.1 °F 7.3 °F 1019.5 in SSW 4.8 mph 9.7 mph 95 % 0.0 in
00:37 8.1 °F 7.3 °F 1019.5 in SW 6.4 mph 9.7 mph 95 % 0.0 in
00:42 8.1 °F 7.3 °F 1019.5 in SSW 4.8 mph 9.7 mph 95 % 0.0 in
00:47 8.1 °F 7.3 °F 1019.5 in South 3.2 mph 9.7 mph 95 % 0.0 in
00:52 8.2 °F 7.6 °F 1019.5 in SSW 8.0 mph 9.7 mph 96 % 0.0 in
00:57 8.2 °F 7.6 °F 1019.5 in SSW 6.4 mph 11.3 mph 96 % 0.0 in
01:02 8.2 °F 7.6 °F 1019.5 in SSW 4.8 mph 11.3 mph 96 % 0.0 in
01:12 8.2 °F 7.4 °F 1019.5 in SW 4.8 mph 11.3 mph 95 % 0.0 in
01:17 8.2 °F 7.4 °F 1019.5 in SSW 3.2 mph 11.3 mph 95 % 0.0 in
01:22 8.1 °F 7.3 °F 1019.5 in SW 9.7 mph 11.3 mph 95 % 0.0 in
01:32 7.9 °F 7.1 °F 1019.5 in SW 4.8 mph 9.7 mph 95 % 0.0 in
01:42 7.8 °F 7.0 °F 1019.5 in SSW 4.8 mph 9.7 mph 95 % 0.0 in
01:47 7.7 °F 6.9 °F 1019.5 in South 4.8 mph 8.0 mph 95 % 0.0 in
01:52 7.7 °F 7.1 °F 1019.5 in South 3.2 mph 8.0 mph 96 % 0.0 in
01:57 7.8 °F 7.2 °F 1019.5 in SSW 1.6 mph 11.3 mph 96 % 0.0 in
02:02 7.7 °F 6.9 °F 1019.5 in SSW 4.8 mph 11.3 mph 95 % 0.0 in
02:12 7.6 °F 6.9 °F 1019.5 in SSW 3.2 mph 12.9 mph 95 % 0.0 in
02:17 7.6 °F 7.0 °F 1019.9 in SW 8.0 mph 12.9 mph 96 % 0.0 in
02:22 7.7 °F 7.1 °F 1019.5 in SW 4.8 mph 12.9 mph 96 % 0.0 in
02:32 7.7 °F 6.9 °F 1019.9 in SSW 8.0 mph 14.5 mph 95 % 0.0 in
02:42 7.8 °F 7.0 °F 1019.9 in SW 8.0 mph 14.5 mph 95 % 0.3 in
02:47 7.8 °F 7.0 °F 1019.9 in SW 6.4 mph 16.1 mph 95 % 0.3 in
02:52 7.8 °F 7.0 °F 1019.9 in SSW 6.4 mph 16.1 mph 95 % 0.3 in
02:57 7.8 °F 7.0 °F 1019.9 in SW 6.4 mph 14.5 mph 95 % 0.3 in
03:02 7.8 °F 7.0 °F 1019.9 in SW 9.7 mph 14.5 mph 95 % 0.3 in
03:12 7.8 °F 7.0 °F 1019.9 in SSW 6.4 mph 14.5 mph 95 % 0.3 in
03:17 7.8 °F 7.0 °F 1019.9 in SW 6.4 mph 14.5 mph 95 % 0.3 in
03:22 7.9 °F 7.1 °F 1019.9 in SW 3.2 mph 14.5 mph 95 % 0.3 in
03:27 7.9 °F 7.1 °F 1019.9 in SW 6.4 mph 14.5 mph 95 % 0.3 in
03:32 7.9 °F 7.1 °F 1019.9 in SW 8.0 mph 14.5 mph 95 % 0.0 in
03:42 8.0 °F 7.4 °F 1019.9 in SSW 4.8 mph 12.9 mph 96 % 0.0 in
03:47 8.1 °F 7.5 °F 1019.9 in SSW 8.0 mph 14.5 mph 96 % 0.0 in
03:52 8.2 °F 7.6 °F 1019.9 in WSW 6.4 mph 14.5 mph 96 % 0.0 in
03:57 8.3 °F 7.7 °F 1019.9 in WSW 3.2 mph 12.9 mph 96 % 0.0 in
04:02 8.4 °F 7.8 °F 1019.9 in SSW 4.8 mph 12.9 mph 96 % 0.0 in
04:12 8.5 °F 7.7 °F 1020.2 in South 8.0 mph 12.9 mph 95 % 0.0 in
04:17 8.6 °F 7.8 °F 1020.2 in SW 4.8 mph 16.1 mph 95 % 0.0 in
04:22 8.6 °F 7.8 °F 1020.2 in WSW 9.7 mph 16.1 mph 95 % 0.0 in
04:27 8.6 °F 7.8 °F 1020.2 in WSW 11.3 mph 19.3 mph 95 % 0.0 in
04:32 8.6 °F 7.8 °F 1020.2 in SW 9.7 mph 19.3 mph 95 % 0.0 in
04:42 8.6 °F 7.8 °F 1020.2 in SW 3.2 mph 24.1 mph 95 % 0.0 in
04:52 8.6 °F 7.8 °F 1020.2 in SW 8.0 mph 24.1 mph 95 % 0.0 in
04:57 8.6 °F 7.8 °F 1020.2 in WSW 6.4 mph 16.1 mph 95 % 0.0 in
05:02 8.6 °F 7.8 °F 1020.2 in West 3.2 mph 16.1 mph 95 % 0.0 in
05:12 8.6 °F 7.8 °F 1020.2 in West 11.3 mph 14.5 mph 95 % 0.0 in
05:17 8.6 °F 7.8 °F 1020.2 in SW 9.7 mph 17.7 mph 95 % 0.0 in
05:22 8.6 °F 7.8 °F 1020.2 in SW 9.7 mph 17.7 mph 95 % 0.0 in
05:32 8.6 °F 7.8 °F 1020.2 in SSW 12.9 mph 17.7 mph 95 % 0.0 in
05:42 8.6 °F 7.8 °F 1020.5 in West 16.1 mph 17.7 mph 95 % 0.0 in
05:52 8.6 °F 7.8 °F 1020.5 in WSW 4.8 mph 19.3 mph 95 % 0.0 in
05:57 8.6 °F 7.8 °F 1020.5 in WSW 4.8 mph 19.3 mph 95 % 0.0 in
06:02 8.6 °F 7.8 °F 1020.5 in SW 6.4 mph 19.3 mph 95 % 0.0 in
06:07 8.6 °F 7.8 °F 1020.5 in WSW 3.2 mph 16.1 mph 95 % 0.0 in
06:12 8.6 °F 7.8 °F 1020.5 in West 6.4 mph 16.1 mph 95 % 0.0 in
06:17 8.6 °F 7.8 °F 1020.9 in SSW 4.8 mph 16.1 mph 95 % 0.0 in
06:22 8.5 °F 7.7 °F 1020.9 in WSW 9.7 mph 16.1 mph 95 % 0.0 in
06:32 8.5 °F 7.7 °F 1020.9 in West 19.3 mph 19.3 mph 95 % 0.0 in
06:37 8.4 °F 7.6 °F 1020.9 in WSW 4.8 mph 19.3 mph 95 % 0.0 in
06:47 8.4 °F 7.6 °F 1021.2 in WSW 4.8 mph 19.3 mph 95 % 0.0 in
06:52 8.4 °F 7.6 °F 1021.2 in West 4.8 mph 19.3 mph 95 % 0.0 in
06:57 8.4 °F 7.6 °F 1021.6 in WSW 4.8 mph 17.7 mph 95 % 0.0 in
07:02 8.4 °F 7.6 °F 1021.6 in WSW 11.3 mph 17.7 mph 95 % 0.0 in
07:12 8.5 °F 7.7 °F 1021.6 in SW 3.2 mph 14.5 mph 95 % 0.0 in
07:22 8.6 °F 7.8 °F 1021.6 in WSW 1.6 mph 17.7 mph 95 % 0.0 in
07:32 8.6 °F 7.8 °F 1021.9 in SSW 1.6 mph 12.9 mph 95 % 0.0 in
07:42 8.7 °F 7.9 °F 1021.9 in SSE 4.8 mph 11.3 mph 95 % 0.0 in
07:47 8.7 °F 7.9 °F 1021.9 in WSW 3.2 mph 14.5 mph 95 % 0.0 in
07:52 8.7 °F 7.9 °F 1021.9 in West 8.0 mph 14.5 mph 95 % 0.0 in
08:02 8.9 °F 8.1 °F 1021.9 in SW 6.4 mph 14.5 mph 95 % 0.0 in
08:12 9.0 °F 8.1 °F 1022.2 in West 6.4 mph 17.7 mph 94 % 0.0 in
08:17 9.1 °F 8.2 °F 1022.2 in WSW 6.4 mph 14.5 mph 94 % 0.0 in
08:22 8.9 °F 7.8 °F 1022.2 in West 4.8 mph 14.5 mph 93 % 0.0 in
08:32 8.9 °F 8.0 °F 1022.2 in WNW 3.2 mph 17.7 mph 94 % 0.0 in
08:42 9.0 °F 8.1 °F 1022.2 in SSW 6.4 mph 17.7 mph 94 % 0.0 in
08:47 9.1 °F 8.2 °F 1022.6 in WSW 3.2 mph 14.5 mph 94 % 0.0 in
08:52 9.2 °F 8.3 °F 1022.6 in SW 9.7 mph 14.5 mph 94 % 0.0 in
08:57 9.2 °F 8.1 °F 1022.6 in SW 4.8 mph 14.5 mph 93 % 0.0 in
09:02 9.1 °F 7.9 °F 1022.6 in West 9.7 mph 14.5 mph 92 % 0.0 in
09:12 9.4 °F 8.2 °F 1022.6 in West 6.4 mph 22.5 mph 92 % 0.0 in
09:17 9.5 °F 8.1 °F 1022.6 in West 9.7 mph 22.5 mph 91 % 0.0 in
09:22 9.8 °F 8.6 °F 1022.6 in West 8.0 mph 22.5 mph 92 % 0.0 in
09:32 10.1 °F 8.5 °F 1022.9 in SW 8.0 mph 19.3 mph 90 % 0.0 in
09:37 10.1 °F 8.5 °F 1022.9 in WSW 8.0 mph 20.9 mph 90 % 0.0 in
09:42 10.2 °F 8.6 °F 1022.9 in SSW 8.0 mph 20.9 mph 90 % 0.0 in
09:52 10.6 °F 8.9 °F 1022.9 in WSW 8.0 mph 19.3 mph 89 % 0.0 in
09:57 10.5 °F 8.6 °F 1022.9 in SW 9.7 mph 19.3 mph 88 % 0.0 in
10:02 10.6 °F 8.7 °F 1022.9 in West 12.9 mph 19.3 mph 88 % 0.0 in
10:12 11.1 °F 9.0 °F 1023.2 in WSW 4.8 mph 16.1 mph 87 % 0.0 in
10:17 11.2 °F 8.9 °F 1023.2 in SW 1.6 mph 19.3 mph 86 % 0.0 in
10:22 11.3 °F 8.9 °F 1023.2 in WSW 8.0 mph 19.3 mph 85 % 0.0 in
10:32 11.8 °F 9.0 °F 1023.2 in SW 11.3 mph 16.1 mph 83 % 0.0 in
10:37 12.2 °F 9.9 °F 1023.2 in West 6.4 mph 17.7 mph 86 % 0.0 in
10:42 12.1 °F 8.9 °F 1023.2 in West 14.5 mph 17.7 mph 81 % 0.0 in
10:47 12.2 °F 8.7 °F 1023.2 in West 8.0 mph 19.3 mph 79 % 0.0 in
10:52 12.4 °F 9.0 °F 1023.2 in SW 6.4 mph 19.3 mph 80 % 0.0 in
11:02 12.7 °F 8.4 °F 1023.2 in West 11.3 mph 19.3 mph 75 % 0.0 in
11:12 12.8 °F 8.9 °F 1023.2 in WSW 12.9 mph 20.9 mph 77 % 0.0 in
11:17 13.1 °F 9.4 °F 1023.2 in SW 4.8 mph 22.5 mph 78 % 0.0 in
11:22 12.9 °F 7.8 °F 1023.6 in West 8.0 mph 22.5 mph 71 % 0.0 in
11:32 13.5 °F 9.0 °F 1023.6 in West 16.1 mph 22.5 mph 74 % 0.0 in
11:42 12.7 °F 8.6 °F 1023.6 in WSW 8.0 mph 16.1 mph 76 % 0.0 in
11:47 12.5 °F 8.6 °F 1023.9 in West 1.6 mph 19.3 mph 77 % 0.0 in
11:52 12.6 °F 8.7 °F 1023.6 in SSW 6.4 mph 19.3 mph 77 % 0.0 in
11:57 12.6 °F 8.5 °F 1023.6 in WSW 9.7 mph 12.9 mph 76 % 0.0 in
12:02 12.7 °F 9.0 °F 1023.6 in WSW 11.3 mph 12.9 mph 78 % 0.0 in
12:12 13.6 °F 8.6 °F 1023.6 in WSW 9.7 mph 14.5 mph 72 % 0.0 in
12:17 13.9 °F 8.5 °F 1023.6 in SW 6.4 mph 14.5 mph 70 % 0.0 in
12:22 13.9 °F 7.9 °F 1023.9 in WSW 4.8 mph 19.3 mph 67 % 0.0 in
12:27 14.2 °F 9.0 °F 1023.9 in SW 6.4 mph 19.3 mph 71 % 0.0 in
12:32 13.9 °F 8.7 °F 1023.9 in WSW 6.4 mph 22.5 mph 71 % 0.0 in
12:37 13.6 °F 8.6 °F 1023.9 in West 12.9 mph 22.5 mph 72 % 0.0 in
12:42 13.3 °F 8.4 °F 1023.9 in West 6.4 mph 16.1 mph 72 % 0.0 in
12:52 13.0 °F 8.7 °F 1023.9 in West 8.0 mph 16.1 mph 75 % 0.0 in
13:02 13.1 °F 8.8 °F 1023.9 in West 3.2 mph 12.9 mph 75 % 0.0 in
13:12 13.9 °F 8.9 °F 1023.9 in WNW 8.0 mph 11.3 mph 72 % 0.0 in
13:17 14.1 °F 8.5 °F 1023.9 in WNW 6.4 mph 17.7 mph 69 % 0.0 in
13:22 14.1 °F 8.5 °F 1023.9 in West 8.0 mph 17.7 mph 69 % 0.0 in
13:32 14.1 °F 8.5 °F 1023.9 in WSW 8.0 mph 17.7 mph 69 % 0.0 in
13:42 14.8 °F 8.5 °F 1023.9 in SSW 4.8 mph 14.5 mph 66 % 0.0 in
13:52 14.9 °F 8.1 °F 1024.3 in West 8.0 mph 16.1 mph 64 % 0.0 in
13:57 14.9 °F 8.6 °F 1024.3 in WSW 11.3 mph 16.1 mph 66 % 0.0 in
14:02 15.0 °F 8.0 °F 1023.9 in West 4.8 mph 16.1 mph 63 % 0.0 in
14:12 15.6 °F 8.1 °F 1023.9 in West 6.4 mph 14.5 mph 61 % 0.0 in
14:17 15.7 °F 8.2 °F 1023.9 in West 9.7 mph 17.7 mph 61 % 0.0 in
14:22 15.6 °F 8.3 °F 1023.9 in SW 1.6 mph 17.7 mph 62 % 0.0 in
14:32 15.9 °F 7.9 °F 1023.9 in WSW 1.6 mph 17.7 mph 59 % 0.0 in
14:42 15.9 °F 7.4 °F 1023.9 in SW 4.8 mph 11.3 mph 57 % 0.0 in
14:52 16.2 °F 7.9 °F 1023.9 in WSW 3.2 mph 16.1 mph 58 % 0.0 in
15:02 15.9 °F 7.6 °F 1024.3 in WSW 8.0 mph 16.1 mph 58 % 0.0 in
15:12 16.0 °F 7.7 °F 1024.3 in West 6.4 mph 12.9 mph 58 % 0.0 in
15:17 15.9 °F 8.1 °F 1024.3 in SW 9.7 mph 20.9 mph 60 % 0.0 in
15:22 16.3 °F 8.5 °F 1024.3 in WSW 6.4 mph 20.9 mph 60 % 0.0 in
15:32 16.8 °F 8.2 °F 1024.3 in WSW 6.4 mph 20.9 mph 57 % 0.0 in
15:37 16.8 °F 8.0 °F 1023.9 in WSW 11.3 mph 17.7 mph 56 % 0.0 in
15:42 16.7 °F 8.4 °F 1023.9 in SW 9.7 mph 17.7 mph 58 % 0.0 in
15:47 16.6 °F 8.8 °F 1024.3 in SSW 3.2 mph 24.1 mph 60 % 0.0 in
15:52 16.6 °F 9.5 °F 1024.3 in ESE 4.8 mph 24.1 mph 63 % 0.0 in
15:57 16.5 °F 8.7 °F 1024.3 in WSW 12.9 mph 19.3 mph 60 % 0.0 in
16:02 16.6 °F 9.0 °F 1024.3 in WSW 4.8 mph 19.3 mph 61 % 0.0 in
16:07 16.6 °F 8.6 °F 1023.9 in West 6.4 mph 16.1 mph 59 % 0.0 in
16:12 16.9 °F 10.0 °F 1023.9 in SW 1.6 mph 16.1 mph 64 % 0.0 in
16:17 16.8 °F 8.7 °F 1024.3 in SW 8.0 mph 27.4 mph 59 % 0.0 in
16:22 16.6 °F 8.3 °F 1024.3 in SSE 3.2 mph 27.4 mph 58 % 0.0 in
16:32 16.7 °F 8.4 °F 1024.3 in West 8.0 mph 16.1 mph 58 % 0.0 in
16:37 16.5 °F 8.5 °F 1024.3 in SSE 8.0 mph 14.5 mph 59 % 0.0 in
16:42 16.7 °F 8.9 °F 1024.3 in SW 6.4 mph 14.5 mph 60 % 0.0 in
16:47 16.9 °F 8.6 °F 1024.3 in SW 6.4 mph 11.3 mph 58 % 0.0 in
16:52 17.1 °F 9.3 °F 1024.3 in WSW 4.8 mph 11.3 mph 60 % 0.0 in
16:57 17.0 °F 8.4 °F 1024.3 in SW 11.3 mph 20.9 mph 57 % 0.0 in
17:02 16.6 °F 7.8 °F 1024.3 in WNW 8.0 mph 20.9 mph 56 % 0.0 in
17:12 16.8 °F 7.2 °F 1024.6 in WNW 3.2 mph 16.1 mph 53 % 0.0 in
17:17 16.9 °F 8.1 °F 1024.6 in SSW 8.0 mph 22.5 mph 56 % 0.0 in
17:22 17.2 °F 8.3 °F 1024.6 in SW 3.2 mph 22.5 mph 56 % 0.0 in
17:32 17.3 °F 7.9 °F 1024.6 in West 3.2 mph 16.1 mph 54 % 0.0 in
17:37 17.4 °F 8.3 °F 1024.6 in WSW 9.7 mph 16.1 mph 55 % 0.0 in
17:42 17.4 °F 8.5 °F 1024.3 in SSW 8.0 mph 16.1 mph 56 % 0.0 in
17:52 17.3 °F 8.2 °F 1024.6 in South 9.7 mph 17.7 mph 55 % 0.0 in
18:02 17.1 °F 7.4 °F 1024.6 in SW 11.3 mph 16.1 mph 53 % 0.0 in
18:12 17.2 °F 8.1 °F 1024.6 in SSW 6.4 mph 19.3 mph 55 % 0.0 in
18:17 17.3 °F 9.2 °F 1024.6 in SSW 9.7 mph 19.3 mph 59 % 0.0 in
18:22 17.1 °F 9.3 °F 1024.6 in SW 8.0 mph 17.7 mph 60 % 0.0 in
18:27 16.7 °F 9.4 °F 1024.6 in SW 3.2 mph 17.7 mph 62 % 0.0 in
18:32 16.4 °F 9.6 °F 1024.6 in WSW 4.8 mph 19.3 mph 64 % 0.0 in
18:37 16.1 °F 9.5 °F 1024.9 in WSW 11.3 mph 19.3 mph 65 % 0.0 in
18:42 15.9 °F 9.6 °F 1024.9 in SW 1.6 mph 17.7 mph 66 % 0.0 in
18:47 15.8 °F 9.9 °F 1024.9 in West 6.4 mph 16.1 mph 68 % 0.0 in
18:52 15.6 °F 9.7 °F 1024.9 in WNW 11.3 mph 16.1 mph 68 % 0.0 in
18:57 15.1 °F 10.1 °F 1025.3 in WSW 6.4 mph 22.5 mph 72 % 0.0 in
19:02 14.1 °F 9.5 °F 1025.3 in WNW 14.5 mph 22.5 mph 74 % 0.0 in
19:12 12.7 °F 9.9 °F 1025.3 in WNW 8.0 mph 22.5 mph 83 % 0.5 in
19:17 12.4 °F 9.8 °F 1025.3 in North 3.2 mph 19.3 mph 84 % 0.5 in
19:22 12.3 °F 9.9 °F 1025.3 in NNW 3.2 mph 19.3 mph 85 % 0.5 in
19:32 12.2 °F 9.9 °F 1025.3 in NNW 3.2 mph 14.5 mph 86 % 0.5 in
19:42 12.6 °F 10.3 °F 1025.3 in NNW 1.6 mph 6.4 mph 86 % 0.5 in
19:47 13.1 °F 10.6 °F 1025.3 in NNW 1.6 mph 6.4 mph 85 % 0.5 in
19:52 13.5 °F 11.0 °F 1025.3 in Calm   6.4 mph 85 % 0.5 in
20:02 14.2 °F 11.0 °F 1025.3 in Calm   4.8 mph 81 % 0.5 in
20:07 14.7 °F 11.3 °F 1025.3 in Calm   3.2 mph 80 % 0.5 in
20:12 15.1 °F 10.9 °F 1025.6 in WNW 1.6 mph 3.2 mph 76 % 0.3 in
20:17 15.0 °F 11.0 °F 1025.6 in Calm   3.2 mph 77 % 0.0 in
20:22 15.3 °F 11.1 °F 1025.6 in Calm   3.2 mph 76 % 0.0 in
20:27 15.3 °F 11.3 °F 1025.6 in Calm   3.2 mph 77 % 0.0 in
20:32 15.1 °F 10.9 °F 1025.6 in Calm   3.2 mph 76 % 0.0 in
20:42 15.1 °F 10.5 °F 1025.6 in Calm   1.6 mph 74 % 0.0 in
20:47 14.9 °F 10.9 °F 1025.6 in Calm   1.6 mph 77 % 0.0 in
20:52 14.3 °F 10.5 °F 1025.6 in Calm   1.6 mph 78 % 0.0 in
20:57 13.7 °F 10.7 °F 1026.0 in Calm     82 % 0.0 in
21:02 13.0 °F 10.2 °F 1026.0 in Calm     83 % 0.0 in
21:12 12.2 °F 10.1 °F 1026.0 in Calm   1.6 mph 87 % 0.0 in
21:17 12.0 °F 10.2 °F 1026.0 in Calm     89 % 0.0 in
21:22 11.6 °F 9.8 °F 1026.0 in Calm     89 % 0.0 in
21:27 11.4 °F 9.8 °F 1026.0 in Calm     90 % 0.0 in
21:32 11.2 °F 9.8 °F 1026.0 in Calm     91 % 0.0 in
21:37 11.1 °F 9.7 °F 1026.0 in WNW 1.6 mph   91 % 0.0 in
21:42 10.9 °F 9.5 °F 1026.0 in Calm     91 % 0.0 in
21:52 10.8 °F 9.6 °F 1026.3 in Calm   1.6 mph 92 % 0.0 in
21:57 10.7 °F 9.5 °F 1026.3 in Calm   1.6 mph 92 % 0.0 in
22:02 10.6 °F 9.5 °F 1026.3 in Calm   1.6 mph 93 % 0.0 in
22:12 10.6 °F 9.5 °F 1026.3 in Calm   1.6 mph 93 % 0.0 in
22:17 10.5 °F 9.4 °F 1026.3 in Calm   1.6 mph 93 % 0.0 in
22:22 10.4 °F 9.3 °F 1026.3 in WNW 1.6 mph 1.6 mph 93 % 0.0 in
22:32 10.2 °F 9.1 °F 1026.6 in Calm   3.2 mph 93 % 0.0 in
22:37 10.1 °F 9.0 °F 1026.6 in Calm   3.2 mph 93 % 0.0 in
22:42 10.1 °F 9.2 °F 1026.6 in Calm   3.2 mph 94 % 0.0 in
22:52 9.9 °F 9.0 °F 1026.6 in Calm   1.6 mph 94 % 0.0 in
22:57 9.9 °F 9.1 °F 1026.6 in Calm   1.6 mph 95 % 0.0 in
23:02 9.9 °F 9.0 °F 1026.6 in Calm   1.6 mph 94 % 0.0 in
23:12 9.7 °F 8.8 °F 1026.6 in Calm     94 % 0.0 in
23:17 9.4 °F 8.5 °F 1026.6 in North 1.6 mph 1.6 mph 94 % 0.0 in
23:22 9.4 °F 8.6 °F 1026.6 in Calm   1.6 mph 95 % 0.0 in
23:27 9.3 °F 8.5 °F 1026.6 in Calm   1.6 mph 95 % 0.0 in
23:32 9.3 °F 8.5 °F 1026.6 in Calm   1.6 mph 95 % 0.0 in
23:37 9.3 °F 8.5 °F 1026.6 in Calm   1.6 mph 95 % 0.0 in
23:42 9.2 °F 8.4 °F 1026.6 in Calm   1.6 mph 95 % 0.0 in
23:52 8.9 °F 8.1 °F 1026.6 in Calm     95 % 0.0 in
Meteo18
Compliments of Weather Underground - 4 mb

Script developed by  Jim McMurry - jmcmurry@mwt.net Adapted for the template by  Wim van der Kuil - Leuven-Template.eu

You find our weather info also at:

European Weather Network

Weather Underground

Equipment we use:

Weather-station
Davis Vue

Weather-program
Meteobridge

Weather-server
Raspberry PI 2 B+

Provider
1 and 1

Davis Vue

Meteobridge

Raspberry PI 2 B+

1 and 1